sensor_id;sensor_type;location;lat;lon;timestamp;pressure;altitude;pressure_sealevel;temperature;humidity
13015;BME280;6573;57.696;11.950;2024-02-23T16:32:49;98807.47;;;9.81;100.00
13015;BME280;6573;57.696;11.950;2024-02-23T16:35:20;98877.28;;;10.15;100.00
13015;BME280;6573;57.696;11.950;2024-02-23T16:37:49;98911.50;;;10.42;100.00
13015;BME280;6573;57.696;11.950;2024-02-23T16:40:22;98899.03;;;10.20;100.00
13015;BME280;6573;57.696;11.950;2024-02-23T16:42:57;98906.19;;;10.15;100.00
13015;BME280;6573;57.696;11.950;2024-02-23T16:45:46;98930.97;;;10.34;100.00
13015;BME280;6573;57.696;11.950;2024-02-23T16:48:39;98929.34;;;10.30;100.00
13015;BME280;6573;57.696;11.950;2024-02-23T16:51:15;98942.81;;;10.20;100.00
13015;BME280;6573;57.696;11.950;2024-02-23T16:53:59;98797.34;;;9.41;100.00
13015;BME280;6573;57.696;11.950;2024-02-23T16:56:43;98919.59;;;10.06;100.00
13015;BME280;6573;57.696;11.950;2024-02-23T16:59:18;98975.69;;;10.33;100.00
13015;BME280;6573;57.696;11.950;2024-02-23T17:01:51;98964.69;;;10.22;100.00
13015;BME280;6573;57.696;11.950;2024-02-23T17:04:24;98985.56;;;10.26;100.00
13015;BME280;6573;57.696;11.950;2024-02-23T17:06:56;98998.06;;;10.18;100.00
13015;BME280;6573;57.696;11.950;2024-02-23T17:09:28;98944.59;;;9.90;100.00
13015;BME280;6573;57.696;11.950;2024-02-23T17:11:58;98977.38;;;10.06;100.00
13015;BME280;6573;57.696;11.950;2024-02-23T17:14:33;98967.31;;;9.91;100.00
13015;BME280;6573;57.696;11.950;2024-02-23T17:17:02;99033.00;;;10.20;100.00
13015;BME280;6573;57.696;11.950;2024-02-23T17:19:32;99020.13;;;10.11;100.00
13015;BME280;6573;57.696;11.950;2024-02-23T17:22:08;99021.63;;;10.20;100.00
13015;BME280;6573;57.696;11.950;2024-02-23T17:24:42;98960.53;;;9.84;100.00
13015;BME280;6573;57.696;11.950;2024-02-23T17:27:13;99048.97;;;10.14;100.00
13015;BME280;6573;57.696;11.950;2024-02-23T17:29:44;99049.97;;;10.09;100.00
13015;BME280;6573;57.696;11.950;2024-02-23T17:32:13;99055.00;;;10.18;100.00
13015;BME280;6573;57.696;11.950;2024-02-23T17:34:49;98990.50;;;9.77;100.00
13015;BME280;6573;57.696;11.950;2024-02-23T17:37:19;99068.19;;;10.16;100.00
13015;BME280;6573;57.696;11.950;2024-02-23T17:40:07;99021.03;;;10.10;100.00
13015;BME280;6573;57.696;11.950;2024-02-23T17:42:42;99075.97;;;10.49;100.00
13015;BME280;6573;57.696;11.950;2024-02-23T17:45:12;99077.78;;;10.47;100.00
13015;BME280;6573;57.696;11.950;2024-02-23T17:47:44;99098.81;;;10.47;100.00
13015;BME280;6573;57.696;11.950;2024-02-23T17:50:22;99100.97;;;10.32;100.00
13015;BME280;6573;57.696;11.950;2024-02-23T17:52:54;99077.69;;;10.20;100.00
13015;BME280;6573;57.696;11.950;2024-02-23T17:55:27;99111.41;;;10.35;100.00
13015;BME280;6573;57.696;11.950;2024-02-23T17:57:57;99102.94;;;10.26;100.00
13015;BME280;6573;57.696;11.950;2024-02-23T18:00:41;99085.75;;;10.14;100.00
13015;BME280;6573;57.696;11.950;2024-02-23T18:03:15;99133.31;;;10.34;100.00
13015;BME280;6573;57.696;11.950;2024-02-23T18:05:50;98974.47;;;9.57;100.00
13015;BME280;6573;57.696;11.950;2024-02-23T18:08:25;98998.09;;;9.57;100.00
13015;BME280;6573;57.696;11.950;2024-02-23T18:11:01;99141.31;;;10.31;100.00
13015;BME280;6573;57.696;11.950;2024-02-23T18:13:46;99024.47;;;9.51;100.00
13015;BME280;6573;57.696;11.950;2024-02-23T18:16:20;99135.94;;;10.34;100.00
13015;BME280;6573;57.696;11.950;2024-02-23T18:18:50;99139.41;;;10.36;100.00
13015;BME280;6573;57.696;11.950;2024-02-23T18:21:22;99142.66;;;10.45;100.00
13015;BME280;6573;57.696;11.950;2024-02-23T18:23:54;99148.72;;;10.48;100.00
13015;BME280;6573;57.696;11.950;2024-02-23T18:26:23;99144.25;;;10.52;100.00
13015;BME280;6573;57.696;11.950;2024-02-23T18:28:52;99130.09;;;10.25;100.00
13015;BME280;6573;57.696;11.950;2024-02-23T18:31:22;99122.19;;;10.26;100.00
13015;BME280;6573;57.696;11.950;2024-02-23T18:33:55;99153.09;;;10.48;100.00
13015;BME280;6573;57.696;11.950;2024-02-23T18:36:27;99139.22;;;10.43;100.00
13015;BME280;6573;57.696;11.950;2024-02-23T18:38:56;99068.31;;;10.10;100.00
13015;BME280;6573;57.696;11.950;2024-02-23T18:41:30;99108.13;;;10.27;100.00
13015;BME280;6573;57.696;11.950;2024-02-23T18:44:14;99167.63;;;10.30;100.00
13015;BME280;6573;57.696;11.950;2024-02-23T18:46:54;99090.03;;;9.86;100.00
13015;BME280;6573;57.696;11.950;2024-02-23T18:49:26;99146.91;;;10.19;100.00
13015;BME280;6573;57.696;11.950;2024-02-23T18:52:03;99113.72;;;10.15;100.00
13015;BME280;6573;57.696;11.950;2024-02-23T18:54:36;99161.91;;;10.47;100.00
13015;BME280;6573;57.696;11.950;2024-02-23T18:57:08;99172.50;;;10.44;100.00
13015;BME280;6573;57.696;11.950;2024-02-23T18:59:37;99161.25;;;10.38;100.00
13015;BME280;6573;57.696;11.950;2024-02-23T19:02:06;99163.81;;;10.42;100.00
13015;BME280;6573;57.696;11.950;2024-02-23T19:04:36;99107.31;;;9.93;100.00
13015;BME280;6573;57.696;11.950;2024-02-23T19:07:07;99162.34;;;10.31;100.00
13015;BME280;6573;57.696;11.950;2024-02-23T19:09:36;99163.22;;;10.32;100.00
13015;BME280;6573;57.696;11.950;2024-02-23T19:12:08;99155.06;;;10.39;100.00
13015;BME280;6573;57.696;11.950;2024-02-23T19:14:38;99085.81;;;10.11;100.00
13015;BME280;6573;57.696;11.950;2024-02-23T19:17:09;99126.44;;;10.30;100.00
13015;BME280;6573;57.696;11.950;2024-02-23T19:19:38;99110.22;;;10.16;100.00
13015;BME280;6573;57.696;11.950;2024-02-23T19:22:22;99137.97;;;10.26;100.00
13015;BME280;6573;57.696;11.950;2024-02-23T19:24:54;99134.63;;;10.20;100.00
13015;BME280;6573;57.696;11.950;2024-02-23T19:27:26;99158.78;;;10.32;100.00
13015;BME280;6573;57.696;11.950;2024-02-23T19:30:05;99053.69;;;9.71;100.00
13015;BME280;6573;57.696;11.950;2024-02-23T19:32:43;99126.94;;;10.12;100.00
13015;BME280;6573;57.696;11.950;2024-02-23T19:35:15;99156.81;;;10.40;100.00
13015;BME280;6573;57.696;11.950;2024-02-23T19:37:49;99053.25;;;9.86;100.00
13015;BME280;6573;57.696;11.950;2024-02-23T19:40:20;99154.84;;;10.49;100.00
13015;BME280;6573;57.696;11.950;2024-02-23T19:42:52;99156.66;;;10.47;100.00
13015;BME280;6573;57.696;11.950;2024-02-23T19:45:25;99158.72;;;10.35;100.00
13015;BME280;6573;57.696;11.950;2024-02-23T19:47:57;99108.78;;;10.03;100.00
13015;BME280;6573;57.696;11.950;2024-02-23T19:50:29;99162.97;;;10.39;100.00
13015;BME280;6573;57.696;11.950;2024-02-23T19:53:10;99144.41;;;10.15;100.00
13015;BME280;6573;57.696;11.950;2024-02-23T19:55:45;99167.94;;;10.19;100.00
13015;BME280;6573;57.696;11.950;2024-02-23T19:58:15;99090.63;;;9.65;100.00
13015;BME280;6573;57.696;11.950;2024-02-23T20:00:44;99128.53;;;9.87;100.00
13015;BME280;6573;57.696;11.950;2024-02-23T20:03:13;99155.94;;;10.09;100.00
13015;BME280;6573;57.696;11.950;2024-02-23T20:05:42;99176.63;;;10.21;100.00
13015;BME280;6573;57.696;11.950;2024-02-23T20:08:15;99173.00;;;10.25;100.00
13015;BME280;6573;57.696;11.950;2024-02-23T20:10:47;99126.44;;;9.98;100.00
13015;BME280;6573;57.696;11.950;2024-02-23T20:13:21;99126.28;;;10.04;100.00
13015;BME280;6573;57.696;11.950;2024-02-23T20:16:04;99182.38;;;10.35;100.00
13015;BME280;6573;57.696;11.950;2024-02-23T20:18:47;99161.69;;;10.23;100.00
13015;BME280;6573;57.696;11.950;2024-02-23T20:21:28;99189.69;;;10.24;100.00
13015;BME280;6573;57.696;11.950;2024-02-23T20:24:00;99201.03;;;10.26;100.00
13015;BME280;6573;57.696;11.950;2024-02-23T20:26:34;99212.81;;;10.43;100.00
13015;BME280;6573;57.696;11.950;2024-02-23T20:29:08;99098.06;;;9.80;100.00
13015;BME280;6573;57.696;11.950;2024-02-23T20:31:37;99192.81;;;10.37;100.00
13015;BME280;6573;57.696;11.950;2024-02-23T20:34:11;99119.72;;;9.88;100.00
13015;BME280;6573;57.696;11.950;2024-02-23T20:36:44;99214.28;;;10.53;100.00
13015;BME280;6573;57.696;11.950;2024-02-23T20:39:21;99148.84;;;10.11;100.00
13015;BME280;6573;57.696;11.950;2024-02-23T20:41:52;99212.09;;;10.37;100.00
13015;BME280;6573;57.696;11.950;2024-02-23T20:45:00;99199.69;;;10.43;100.00
13015;BME280;6573;57.696;11.950;2024-02-23T20:47:40;99122.94;;;9.99;100.00
13015;BME280;6573;57.696;11.950;2024-02-23T20:50:20;99161.56;;;10.28;100.00
13015;BME280;6573;57.696;11.950;2024-02-23T20:53:05;99103.81;;;9.94;100.00
13015;BME280;6573;57.696;11.950;2024-02-23T20:55:39;99229.28;;;10.80;100.00
13015;BME280;6573;57.696;11.950;2024-02-23T20:58:08;99231.25;;;10.72;100.00
13015;BME280;6573;57.696;11.950;2024-02-23T21:00:39;99229.63;;;10.68;100.00
13015;BME280;6573;57.696;11.950;2024-02-23T21:03:10;99174.56;;;10.32;100.00
13015;BME280;6573;57.696;11.950;2024-02-23T21:05:38;99247.22;;;10.66;100.00
13015;BME280;6573;57.696;11.950;2024-02-23T21:08:17;99201.81;;;10.61;100.00
13015;BME280;6573;57.696;11.950;2024-02-23T21:11:16;99191.47;;;10.22;100.00
13015;BME280;6573;57.696;11.950;2024-02-23T21:14:06;99085.50;;;9.59;100.00
13015;BME280;6573;57.696;11.950;2024-02-23T21:16:36;99253.94;;;10.76;100.00
13015;BME280;6573;57.696;11.950;2024-02-23T21:19:10;99167.84;;;10.22;100.00
13015;BME280;6573;57.696;11.950;2024-02-23T21:21:45;99227.75;;;10.73;100.00
13015;BME280;6573;57.696;11.950;2024-02-23T21:24:13;99096.66;;;9.99;100.00
13015;BME280;6573;57.696;11.950;2024-02-23T21:26:46;99170.84;;;10.39;100.00
13015;BME280;6573;57.696;11.950;2024-02-23T21:29:30;99255.94;;;10.68;100.00
13015;BME280;6573;57.696;11.950;2024-02-23T21:32:04;99153.88;;;10.20;100.00
13015;BME280;6573;57.696;11.950;2024-02-23T21:34:41;99203.97;;;10.47;100.00
13015;BME280;6573;57.696;11.950;2024-02-23T21:37:27;99105.50;;;9.97;100.00
13015;BME280;6573;57.696;11.950;2024-02-23T21:40:20;99193.56;;;10.42;100.00
13015;BME280;6573;57.696;11.950;2024-02-23T21:43:01;99162.50;;;10.25;100.00
13015;BME280;6573;57.696;11.950;2024-02-23T21:45:36;99097.63;;;9.95;100.00
13015;BME280;6573;57.696;11.950;2024-02-23T21:49:01;99093.47;;;9.88;100.00
13015;BME280;6573;57.696;11.950;2024-02-23T21:52:04;99159.56;;;10.36;100.00
13015;BME280;6573;57.696;11.950;2024-02-23T21:55:08;99129.56;;;10.12;100.00
13015;BME280;6573;57.696;11.950;2024-02-23T21:57:47;99271.38;;;10.80;100.00
13015;BME280;6573;57.696;11.950;2024-02-23T22:00:20;99128.59;;;9.84;100.00
13015;BME280;6573;57.696;11.950;2024-02-23T22:02:53;99268.72;;;10.80;100.00
13015;BME280;6573;57.696;11.950;2024-02-23T22:05:27;99266.28;;;10.74;100.00
13015;BME280;6573;57.696;11.950;2024-02-23T22:07:58;99217.72;;;10.24;100.00
13015;BME280;6573;57.696;11.950;2024-02-23T22:10:30;99254.88;;;10.43;100.00
13015;BME280;6573;57.696;11.950;2024-02-23T22:13:02;99274.75;;;10.54;100.00
13015;BME280;6573;57.696;11.950;2024-02-23T22:15:34;99183.03;;;10.10;100.00
13015;BME280;6573;57.696;11.950;2024-02-23T22:22:03;99126.94;;;9.80;100.00
13015;BME280;6573;57.696;11.950;2024-02-23T22:25:10;99187.44;;;10.09;100.00
13015;BME280;6573;57.696;11.950;2024-02-23T22:27:50;99277.56;;;10.47;100.00
13015;BME280;6573;57.696;11.950;2024-02-23T22:30:44;99202.69;;;9.95;100.00
13015;BME280;6573;57.696;11.950;2024-02-23T22:33:13;99222.03;;;10.26;100.00
13015;BME280;6573;57.696;11.950;2024-02-23T22:35:42;99233.84;;;10.43;100.00
13015;BME280;6573;57.696;11.950;2024-02-23T22:38:11;99249.06;;;10.31;100.00
13015;BME280;6573;57.696;11.950;2024-02-23T22:40:40;99272.88;;;10.25;100.00
13015;BME280;6573;57.696;11.950;2024-02-23T22:43:17;99306.25;;;10.22;100.00
13015;BME280;6573;57.696;11.950;2024-02-23T22:45:48;99237.16;;;9.83;100.00
13015;BME280;6573;57.696;11.950;2024-02-23T22:48:18;99290.03;;;10.03;100.00
13015;BME280;6573;57.696;11.950;2024-02-23T22:50:52;99221.06;;;9.61;100.00
13015;BME280;6573;57.696;11.950;2024-02-23T22:53:22;99301.53;;;9.99;100.00
13015;BME280;6573;57.696;11.950;2024-02-23T22:56:00;99262.13;;;9.64;100.00
13015;BME280;6573;57.696;11.950;2024-02-23T22:58:32;99198.06;;;9.37;100.00
13015;BME280;6573;57.696;11.950;2024-02-23T23:01:03;99327.19;;;9.90;100.00
13015;BME280;6573;57.696;11.950;2024-02-23T23:03:32;99315.81;;;9.88;100.00
13015;BME280;6573;57.696;11.950;2024-02-23T23:06:03;99311.38;;;9.91;100.00
13015;BME280;6573;57.696;11.950;2024-02-23T23:08:34;99269.19;;;9.62;100.00
13015;BME280;6573;57.696;11.950;2024-02-23T23:11:03;99345.56;;;9.88;100.00
13015;BME280;6573;57.696;11.950;2024-02-23T23:13:33;99360.41;;;9.91;100.00
13015;BME280;6573;57.696;11.950;2024-02-23T23:16:06;99313.69;;;9.30;100.00
13015;BME280;6573;57.696;11.950;2024-02-23T23:18:36;99339.31;;;9.57;100.00
13015;BME280;6573;57.696;11.950;2024-02-23T23:21:07;99373.88;;;9.77;100.00
13015;BME280;6573;57.696;11.950;2024-02-23T23:23:35;99320.56;;;9.34;100.00
13015;BME280;6573;57.696;11.950;2024-02-23T23:26:04;99376.25;;;9.48;100.00
13015;BME280;6573;57.696;11.950;2024-02-23T23:28:33;99391.53;;;9.69;100.00
13015;BME280;6573;57.696;11.950;2024-02-23T23:31:02;99407.16;;;9.75;100.00
13015;BME280;6573;57.696;11.950;2024-02-23T23:33:33;99395.91;;;9.68;100.00
13015;BME280;6573;57.696;11.950;2024-02-23T23:36:04;99393.41;;;9.64;100.00
13015;BME280;6573;57.696;11.950;2024-02-23T23:38:33;99395.38;;;9.53;100.00
13015;BME280;6573;57.696;11.950;2024-02-23T23:41:03;99412.94;;;9.51;100.00
13015;BME280;6573;57.696;11.950;2024-02-23T23:43:31;99443.06;;;9.74;100.00
13015;BME280;6573;57.696;11.950;2024-02-23T23:46:04;99401.53;;;9.52;100.00
13015;BME280;6573;57.696;11.950;2024-02-23T23:48:36;99416.53;;;9.47;100.00
13015;BME280;6573;57.696;11.950;2024-02-23T23:51:05;99439.94;;;9.57;100.00
13015;BME280;6573;57.696;11.950;2024-02-23T23:53:35;99428.94;;;9.39;100.00
13015;BME280;6573;57.696;11.950;2024-02-23T23:56:04;99457.34;;;9.61;100.00
13015;BME280;6573;57.696;11.950;2024-02-23T23:58:33;99440.97;;;9.49;100.00
